sensor_id;sensor_type;location;lat;lon;timestamp;temperature;humidity
57386;DHT22;61487;56.494;21.014;2022-07-05T00:00:20;18.30;99.90
57386;DHT22;61487;56.494;21.014;2022-07-05T00:02:47;18.40;99.90
57386;DHT22;61487;56.494;21.014;2022-07-05T00:05:14;18.40;99.90
57386;DHT22;61487;56.494;21.014;2022-07-05T00:07:41;18.40;99.90
57386;DHT22;61487;56.494;21.014;2022-07-05T00:10:08;18.30;99.90
57386;DHT22;61487;56.494;21.014;2022-07-05T00:12:35;18.30;99.90
57386;DHT22;61487;56.494;21.014;2022-07-05T00:15:03;18.40;99.90
57386;DHT22;61487;56.494;21.014;2022-07-05T00:17:30;18.40;99.90
57386;DHT22;61487;56.494;21.014;2022-07-05T00:19:57;18.40;99.90
57386;DHT22;61487;56.494;21.014;2022-07-05T00:22:24;18.40;99.90
57386;DHT22;61487;56.494;21.014;2022-07-05T00:24:56;18.40;99.90
57386;DHT22;61487;56.494;21.014;2022-07-05T00:27:23;18.40;99.90
57386;DHT22;61487;56.494;21.014;2022-07-05T00:29:50;18.40;99.90
57386;DHT22;61487;56.494;21.014;2022-07-05T00:32:17;18.40;99.90
57386;DHT22;61487;56.494;21.014;2022-07-05T00:34:44;18.40;99.90
57386;DHT22;61487;56.494;21.014;2022-07-05T00:37:13;18.40;99.90
57386;DHT22;61487;56.494;21.014;2022-07-05T00:39:40;18.40;99.90
57386;DHT22;61487;56.494;21.014;2022-07-05T00:42:07;18.40;99.90
57386;DHT22;61487;56.494;21.014;2022-07-05T00:44:36;18.30;99.90
57386;DHT22;61487;56.494;21.014;2022-07-05T00:47:04;18.30;99.90
57386;DHT22;61487;56.494;21.014;2022-07-05T00:49:33;18.40;99.90
57386;DHT22;61487;56.494;21.014;2022-07-05T00:52:00;18.30;99.90
57386;DHT22;61487;56.494;21.014;2022-07-05T00:54:46;18.30;99.90
57386;DHT22;61487;56.494;21.014;2022-07-05T00:57:14;18.40;99.90
57386;DHT22;61487;56.494;21.014;2022-07-05T00:59:41;18.40;99.90
57386;DHT22;61487;56.494;21.014;2022-07-05T01:02:08;18.40;99.90
57386;DHT22;61487;56.494;21.014;2022-07-05T01:04:35;18.30;99.90
57386;DHT22;61487;56.494;21.014;2022-07-05T01:07:04;18.40;99.90
57386;DHT22;61487;56.494;21.014;2022-07-05T01:09:34;18.30;99.90
57386;DHT22;61487;56.494;21.014;2022-07-05T01:12:02;18.30;99.90
57386;DHT22;61487;56.494;21.014;2022-07-05T01:14:29;18.30;99.90
57386;DHT22;61487;56.494;21.014;2022-07-05T01:16:56;18.40;99.90
57386;DHT22;61487;56.494;21.014;2022-07-05T01:19:24;18.40;99.90
57386;DHT22;61487;56.494;21.014;2022-07-05T01:21:51;18.40;99.90
57386;DHT22;61487;56.494;21.014;2022-07-05T01:24:19;18.40;99.90
57386;DHT22;61487;56.494;21.014;2022-07-05T01:26:48;18.40;99.90
57386;DHT22;61487;56.494;21.014;2022-07-05T01:29:15;18.40;99.90
57386;DHT22;61487;56.494;21.014;2022-07-05T01:31:43;18.40;99.90
57386;DHT22;61487;56.494;21.014;2022-07-05T01:34:10;18.40;99.90
57386;DHT22;61487;56.494;21.014;2022-07-05T01:36:37;18.40;99.90
57386;DHT22;61487;56.494;21.014;2022-07-05T01:39:07;18.40;99.90
57386;DHT22;61487;56.494;21.014;2022-07-05T01:41:35;18.40;99.90
57386;DHT22;61487;56.494;21.014;2022-07-05T01:44:03;18.30;99.90
57386;DHT22;61487;56.494;21.014;2022-07-05T01:46:32;18.30;99.90
57386;DHT22;61487;56.494;21.014;2022-07-05T01:49:04;18.30;99.90
57386;DHT22;61487;56.494;21.014;2022-07-05T01:51:49;18.30;99.90
57386;DHT22;61487;56.494;21.014;2022-07-05T01:54:19;18.40;99.90
57386;DHT22;61487;56.494;21.014;2022-07-05T01:56:46;18.40;99.90
57386;DHT22;61487;56.494;21.014;2022-07-05T01:59:14;18.40;99.90
57386;DHT22;61487;56.494;21.014;2022-07-05T02:01:41;18.40;99.90
57386;DHT22;61487;56.494;21.014;2022-07-05T02:04:09;18.40;99.90
57386;DHT22;61487;56.494;21.014;2022-07-05T02:06:37;18.40;99.90
57386;DHT22;61487;56.494;21.014;2022-07-05T02:09:05;18.50;99.90
57386;DHT22;61487;56.494;21.014;2022-07-05T02:11:34;18.50;99.90
57386;DHT22;61487;56.494;21.014;2022-07-05T02:14:01;18.50;99.90
57386;DHT22;61487;56.494;21.014;2022-07-05T02:16:28;18.50;99.90
57386;DHT22;61487;56.494;21.014;2022-07-05T02:18:56;18.50;99.90
57386;DHT22;61487;56.494;21.014;2022-07-05T02:21:23;18.50;99.90
57386;DHT22;61487;56.494;21.014;2022-07-05T02:23:50;18.50;99.90
57386;DHT22;61487;56.494;21.014;2022-07-05T02:26:18;18.50;99.90
57386;DHT22;61487;56.494;21.014;2022-07-05T02:28:45;18.50;99.90
57386;DHT22;61487;56.494;21.014;2022-07-05T02:31:13;18.50;99.90
57386;DHT22;61487;56.494;21.014;2022-07-05T02:33:40;18.40;99.90
57386;DHT22;61487;56.494;21.014;2022-07-05T02:36:11;18.40;99.90
57386;DHT22;61487;56.494;21.014;2022-07-05T02:38:40;18.40;99.90
57386;DHT22;61487;56.494;21.014;2022-07-05T02:41:08;18.50;99.90
57386;DHT22;61487;56.494;21.014;2022-07-05T02:43:36;18.40;99.90
57386;DHT22;61487;56.494;21.014;2022-07-05T02:46:05;18.40;99.90
57386;DHT22;61487;56.494;21.014;2022-07-05T02:48:33;18.40;99.90
57386;DHT22;61487;56.494;21.014;2022-07-05T02:51:01;18.30;99.90
57386;DHT22;61487;56.494;21.014;2022-07-05T02:53:29;18.30;99.90
57386;DHT22;61487;56.494;21.014;2022-07-05T02:55:56;18.30;99.90
57386;DHT22;61487;56.494;21.014;2022-07-05T02:58:23;18.30;99.90
57386;DHT22;61487;56.494;21.014;2022-07-05T03:00:50;18.30;99.90
57386;DHT22;61487;56.494;21.014;2022-07-05T03:03:17;18.40;99.90
57386;DHT22;61487;56.494;21.014;2022-07-05T03:05:44;18.30;99.90
57386;DHT22;61487;56.494;21.014;2022-07-05T03:08:11;18.30;99.90
57386;DHT22;61487;56.494;21.014;2022-07-05T03:10:38;18.30;99.90
57386;DHT22;61487;56.494;21.014;2022-07-05T03:13:06;18.30;99.90
57386;DHT22;61487;56.494;21.014;2022-07-05T03:15:33;18.30;99.90
57386;DHT22;61487;56.494;21.014;2022-07-05T03:18:00;18.30;99.90
57386;DHT22;61487;56.494;21.014;2022-07-05T03:20:27;18.30;99.90
57386;DHT22;61487;56.494;21.014;2022-07-05T03:22:54;18.30;99.90
57386;DHT22;61487;56.494;21.014;2022-07-05T03:25:22;18.30;99.90
57386;DHT22;61487;56.494;21.014;2022-07-05T03:27:49;18.30;99.90
57386;DHT22;61487;56.494;21.014;2022-07-05T03:30:16;18.20;99.90
57386;DHT22;61487;56.494;21.014;2022-07-05T03:32:43;18.20;99.90
57386;DHT22;61487;56.494;21.014;2022-07-05T03:35:10;18.30;99.90
57386;DHT22;61487;56.494;21.014;2022-07-05T03:37:38;18.30;99.90
57386;DHT22;61487;56.494;21.014;2022-07-05T03:40:06;18.30;99.90
57386;DHT22;61487;56.494;21.014;2022-07-05T03:42:33;18.30;99.90
57386;DHT22;61487;56.494;21.014;2022-07-05T03:45:03;18.30;99.90
57386;DHT22;61487;56.494;21.014;2022-07-05T03:47:30;18.20;99.90
57386;DHT22;61487;56.494;21.014;2022-07-05T03:49:57;18.20;99.90
57386;DHT22;61487;56.494;21.014;2022-07-05T03:52:24;18.20;99.90
57386;DHT22;61487;56.494;21.014;2022-07-05T03:54:52;18.20;99.90
57386;DHT22;61487;56.494;21.014;2022-07-05T03:57:20;18.20;99.90
57386;DHT22;61487;56.494;21.014;2022-07-05T03:59:47;18.30;99.90
57386;DHT22;61487;56.494;21.014;2022-07-05T04:02:14;18.30;99.90
57386;DHT22;61487;56.494;21.014;2022-07-05T04:04:41;18.30;99.90
57386;DHT22;61487;56.494;21.014;2022-07-05T04:07:09;18.30;99.90
57386;DHT22;61487;56.494;21.014;2022-07-05T04:09:36;18.30;99.90
57386;DHT22;61487;56.494;21.014;2022-07-05T04:12:03;18.30;99.90
57386;DHT22;61487;56.494;21.014;2022-07-05T04:14:32;18.30;99.90
57386;DHT22;61487;56.494;21.014;2022-07-05T04:16:59;18.30;99.90
57386;DHT22;61487;56.494;21.014;2022-07-05T04:19:27;18.40;99.90
57386;DHT22;61487;56.494;21.014;2022-07-05T04:21:54;18.30;99.90
57386;DHT22;61487;56.494;21.014;2022-07-05T04:24:21;18.40;99.90
57386;DHT22;61487;56.494;21.014;2022-07-05T04:26:48;18.40;99.90
57386;DHT22;61487;56.494;21.014;2022-07-05T04:29:15;18.40;99.90
57386;DHT22;61487;56.494;21.014;2022-07-05T04:31:42;18.40;99.90
57386;DHT22;61487;56.494;21.014;2022-07-05T04:34:10;18.40;99.90
57386;DHT22;61487;56.494;21.014;2022-07-05T04:36:37;18.40;99.90
57386;DHT22;61487;56.494;21.014;2022-07-05T04:39:07;18.50;99.90
57386;DHT22;61487;56.494;21.014;2022-07-05T04:41:34;18.40;99.90
57386;DHT22;61487;56.494;21.014;2022-07-05T04:44:01;18.50;99.90
57386;DHT22;61487;56.494;21.014;2022-07-05T04:46:29;18.40;99.90
57386;DHT22;61487;56.494;21.014;2022-07-05T04:48:56;18.40;99.90
57386;DHT22;61487;56.494;21.014;2022-07-05T04:51:30;18.50;99.90
57386;DHT22;61487;56.494;21.014;2022-07-05T04:53:57;18.60;99.90
57386;DHT22;61487;56.494;21.014;2022-07-05T04:56:24;18.60;99.90
57386;DHT22;61487;56.494;21.014;2022-07-05T04:58:51;18.70;99.90
57386;DHT22;61487;56.494;21.014;2022-07-05T05:01:18;18.70;99.90
57386;DHT22;61487;56.494;21.014;2022-07-05T05:03:46;18.80;99.90
57386;DHT22;61487;56.494;21.014;2022-07-05T05:06:13;18.80;99.90
57386;DHT22;61487;56.494;21.014;2022-07-05T05:08:41;18.90;99.90
57386;DHT22;61487;56.494;21.014;2022-07-05T05:11:08;19.00;99.90
57386;DHT22;61487;56.494;21.014;2022-07-05T05:13:35;19.00;99.90
57386;DHT22;61487;56.494;21.014;2022-07-05T05:16:03;19.10;99.90
57386;DHT22;61487;56.494;21.014;2022-07-05T05:18:30;19.00;99.90
57386;DHT22;61487;56.494;21.014;2022-07-05T05:20:57;18.90;99.90
57386;DHT22;61487;56.494;21.014;2022-07-05T05:23:24;18.90;99.90
57386;DHT22;61487;56.494;21.014;2022-07-05T05:25:51;19.00;99.90
57386;DHT22;61487;56.494;21.014;2022-07-05T05:28:18;19.00;99.90
57386;DHT22;61487;56.494;21.014;2022-07-05T05:30:46;19.10;99.90
57386;DHT22;61487;56.494;21.014;2022-07-05T05:33:13;19.20;99.90
57386;DHT22;61487;56.494;21.014;2022-07-05T05:35:40;19.40;99.90
57386;DHT22;61487;56.494;21.014;2022-07-05T05:38:07;19.40;99.90
57386;DHT22;61487;56.494;21.014;2022-07-05T05:40:34;19.60;99.90
57386;DHT22;61487;56.494;21.014;2022-07-05T05:43:04;19.50;99.90
57386;DHT22;61487;56.494;21.014;2022-07-05T05:45:31;19.60;99.90
57386;DHT22;61487;56.494;21.014;2022-07-05T05:47:59;19.40;99.90
57386;DHT22;61487;56.494;21.014;2022-07-05T05:50:29;19.30;99.90
57386;DHT22;61487;56.494;21.014;2022-07-05T05:52:57;19.30;99.90
57386;DHT22;61487;56.494;21.014;2022-07-05T05:55:26;19.20;99.90
57386;DHT22;61487;56.494;21.014;2022-07-05T05:57:53;19.30;99.90
57386;DHT22;61487;56.494;21.014;2022-07-05T06:00:21;19.50;99.90
57386;DHT22;61487;56.494;21.014;2022-07-05T06:02:49;19.50;99.90
57386;DHT22;61487;56.494;21.014;2022-07-05T06:05:17;19.70;99.90
57386;DHT22;61487;56.494;21.014;2022-07-05T06:10:18;20.00;99.90
57386;DHT22;61487;56.494;21.014;2022-07-05T06:12:46;19.90;99.90
57386;DHT22;61487;56.494;21.014;2022-07-05T06:15:13;19.90;99.90
57386;DHT22;61487;56.494;21.014;2022-07-05T06:17:40;19.90;99.90
57386;DHT22;61487;56.494;21.014;2022-07-05T06:20:11;19.70;99.90
57386;DHT22;61487;56.494;21.014;2022-07-05T06:22:39;19.50;99.90
57386;DHT22;61487;56.494;21.014;2022-07-05T06:25:13;19.50;99.90
57386;DHT22;61487;56.494;21.014;2022-07-05T06:27:54;19.40;99.90
57386;DHT22;61487;56.494;21.014;2022-07-05T06:30:24;19.60;99.90
57386;DHT22;61487;56.494;21.014;2022-07-05T06:32:52;19.80;99.90
57386;DHT22;61487;56.494;21.014;2022-07-05T06:35:20;19.80;99.90
57386;DHT22;61487;56.494;21.014;2022-07-05T06:37:57;20.00;99.90
57386;DHT22;61487;56.494;21.014;2022-07-05T06:40:42;20.10;99.90
57386;DHT22;61487;56.494;21.014;2022-07-05T06:43:11;20.30;99.90
57386;DHT22;61487;56.494;21.014;2022-07-05T06:45:39;20.30;99.90
57386;DHT22;61487;56.494;21.014;2022-07-05T06:48:08;20.50;99.90
57386;DHT22;61487;56.494;21.014;2022-07-05T06:50:38;20.80;99.90
57386;DHT22;61487;56.494;21.014;2022-07-05T06:53:06;20.80;99.90
57386;DHT22;61487;56.494;21.014;2022-07-05T06:55:34;20.80;99.90
57386;DHT22;61487;56.494;21.014;2022-07-05T06:58:03;20.90;99.90
57386;DHT22;61487;56.494;21.014;2022-07-05T07:00:40;20.90;99.90
57386;DHT22;61487;56.494;21.014;2022-07-05T07:03:28;21.00;99.90
57386;DHT22;61487;56.494;21.014;2022-07-05T07:06:19;21.20;99.90
57386;DHT22;61487;56.494;21.014;2022-07-05T07:08:48;21.50;99.90
57386;DHT22;61487;56.494;21.014;2022-07-05T07:11:33;21.90;99.90
57386;DHT22;61487;56.494;21.014;2022-07-05T07:14:01;23.80;99.90
57386;DHT22;61487;56.494;21.014;2022-07-05T07:16:31;24.90;99.90
57386;DHT22;61487;56.494;21.014;2022-07-05T07:19:01;26.50;99.90
57386;DHT22;61487;56.494;21.014;2022-07-05T07:21:40;26.40;99.90
57386;DHT22;61487;56.494;21.014;2022-07-05T07:24:09;27.60;99.90
57386;DHT22;61487;56.494;21.014;2022-07-05T07:26:38;26.40;99.90
57386;DHT22;61487;56.494;21.014;2022-07-05T07:29:23;25.00;99.90
57386;DHT22;61487;56.494;21.014;2022-07-05T07:31:51;23.70;99.90
57386;DHT22;61487;56.494;21.014;2022-07-05T07:34:19;22.90;99.90
57386;DHT22;61487;56.494;21.014;2022-07-05T07:36:47;22.10;99.90
57386;DHT22;61487;56.494;21.014;2022-07-05T07:39:15;21.40;99.90
57386;DHT22;61487;56.494;21.014;2022-07-05T07:41:42;21.10;99.90
57386;DHT22;61487;56.494;21.014;2022-07-05T07:44:10;21.20;99.90
57386;DHT22;61487;56.494;21.014;2022-07-05T07:46:40;23.10;99.90
57386;DHT22;61487;56.494;21.014;2022-07-05T07:49:08;23.70;99.90
57386;DHT22;61487;56.494;21.014;2022-07-05T07:51:37;24.20;99.90
57386;DHT22;61487;56.494;21.014;2022-07-05T07:54:05;24.20;99.90
57386;DHT22;61487;56.494;21.014;2022-07-05T07:56:35;24.10;99.90
57386;DHT22;61487;56.494;21.014;2022-07-05T07:59:03;24.60;99.90
57386;DHT22;61487;56.494;21.014;2022-07-05T08:01:34;24.90;99.90
57386;DHT22;61487;56.494;21.014;2022-07-05T08:04:10;25.00;99.90
57386;DHT22;61487;56.494;21.014;2022-07-05T08:06:39;25.00;99.90
57386;DHT22;61487;56.494;21.014;2022-07-05T08:09:06;25.80;99.90
57386;DHT22;61487;56.494;21.014;2022-07-05T08:11:42;26.20;99.90
57386;DHT22;61487;56.494;21.014;2022-07-05T08:14:09;27.30;99.50
57386;DHT22;61487;56.494;21.014;2022-07-05T08:16:40;27.80;99.20
57386;DHT22;61487;56.494;21.014;2022-07-05T08:19:18;28.70;97.60
57386;DHT22;61487;56.494;21.014;2022-07-05T08:22:05;28.70;96.30
57386;DHT22;61487;56.494;21.014;2022-07-05T08:24:38;29.30;94.10
57386;DHT22;61487;56.494;21.014;2022-07-05T08:27:07;29.00;93.90
57386;DHT22;61487;56.494;21.014;2022-07-05T08:29:34;28.80;94.20
57386;DHT22;61487;56.494;21.014;2022-07-05T08:32:02;29.70;93.20
57386;DHT22;61487;56.494;21.014;2022-07-05T08:34:30;28.20;93.80
57386;DHT22;61487;56.494;21.014;2022-07-05T08:36:57;28.40;95.10
57386;DHT22;61487;56.494;21.014;2022-07-05T08:39:24;28.30;93.60
57386;DHT22;61487;56.494;21.014;2022-07-05T08:41:52;29.40;94.30
57386;DHT22;61487;56.494;21.014;2022-07-05T08:44:23;29.30;92.70
57386;DHT22;61487;56.494;21.014;2022-07-05T08:46:51;29.30;92.10
57386;DHT22;61487;56.494;21.014;2022-07-05T08:49:25;29.50;92.30
57386;DHT22;61487;56.494;21.014;2022-07-05T08:51:54;29.80;91.80
57386;DHT22;61487;56.494;21.014;2022-07-05T08:54:23;30.00;91.40
57386;DHT22;61487;56.494;21.014;2022-07-05T08:56:51;29.50;91.80
57386;DHT22;61487;56.494;21.014;2022-07-05T08:59:39;28.60;92.10
57386;DHT22;61487;56.494;21.014;2022-07-05T09:02:11;27.10;95.20
57386;DHT22;61487;56.494;21.014;2022-07-05T09:04:43;26.10;97.80
57386;DHT22;61487;56.494;21.014;2022-07-05T09:07:15;25.10;98.70
57386;DHT22;61487;56.494;21.014;2022-07-05T09:09:47;24.60;99.90
57386;DHT22;61487;56.494;21.014;2022-07-05T09:12:16;23.80;99.90
57386;DHT22;61487;56.494;21.014;2022-07-05T09:14:55;23.10;99.90
57386;DHT22;61487;56.494;21.014;2022-07-05T09:17:25;23.10;99.90
57386;DHT22;61487;56.494;21.014;2022-07-05T09:20:15;24.50;99.90
57386;DHT22;61487;56.494;21.014;2022-07-05T09:22:44;25.50;99.80
57386;DHT22;61487;56.494;21.014;2022-07-05T09:28:05;28.00;96.80
57386;DHT22;61487;56.494;21.014;2022-07-05T09:30:38;28.60;96.50
57386;DHT22;61487;56.494;21.014;2022-07-05T09:33:17;28.20;95.30
57386;DHT22;61487;56.494;21.014;2022-07-05T09:35:56;29.10;94.80
57386;DHT22;61487;56.494;21.014;2022-07-05T09:38:29;29.40;93.60
57386;DHT22;61487;56.494;21.014;2022-07-05T09:40:58;30.00;93.20
57386;DHT22;61487;56.494;21.014;2022-07-05T09:43:29;30.20;93.20
57386;DHT22;61487;56.494;21.014;2022-07-05T09:46:03;30.00;91.90
57386;DHT22;61487;56.494;21.014;2022-07-05T09:48:33;30.20;91.20
57386;DHT22;61487;56.494;21.014;2022-07-05T09:53:59;30.30;89.00
57386;DHT22;61487;56.494;21.014;2022-07-05T09:56:47;30.10;88.70
57386;DHT22;61487;56.494;21.014;2022-07-05T09:59:18;29.20;90.00
57386;DHT22;61487;56.494;21.014;2022-07-05T10:01:48;29.50;90.50
57386;DHT22;61487;56.494;21.014;2022-07-05T10:04:18;28.80;91.20
57386;DHT22;61487;56.494;21.014;2022-07-05T10:06:47;27.80;91.80
57386;DHT22;61487;56.494;21.014;2022-07-05T10:09:16;27.90;92.00
57386;DHT22;61487;56.494;21.014;2022-07-05T10:11:45;27.60;93.10
57386;DHT22;61487;56.494;21.014;2022-07-05T10:14:20;27.20;91.80
57386;DHT22;61487;56.494;21.014;2022-07-05T10:16:59;26.60;92.90
57386;DHT22;61487;56.494;21.014;2022-07-05T10:19:33;26.90;93.80
57386;DHT22;61487;56.494;21.014;2022-07-05T10:22:06;27.10;93.30
57386;DHT22;61487;56.494;21.014;2022-07-05T10:24:45;26.10;94.00
57386;DHT22;61487;56.494;21.014;2022-07-05T10:27:14;25.40;94.80
57386;DHT22;61487;56.494;21.014;2022-07-05T10:29:42;25.40;95.20
57386;DHT22;61487;56.494;21.014;2022-07-05T10:32:10;25.70;94.80
57386;DHT22;61487;56.494;21.014;2022-07-05T10:34:39;25.90;95.40
57386;DHT22;61487;56.494;21.014;2022-07-05T10:37:25;26.10;94.90
57386;DHT22;61487;56.494;21.014;2022-07-05T10:39:59;25.90;94.10
57386;DHT22;61487;56.494;21.014;2022-07-05T10:42:31;26.10;93.50
57386;DHT22;61487;56.494;21.014;2022-07-05T10:45:00;25.80;93.10
57386;DHT22;61487;56.494;21.014;2022-07-05T10:47:27;25.60;93.00
57386;DHT22;61487;56.494;21.014;2022-07-05T10:50:04;25.60;93.90
57386;DHT22;61487;56.494;21.014;2022-07-05T10:52:32;25.30;94.80
57386;DHT22;61487;56.494;21.014;2022-07-05T10:55:21;25.60;96.20
57386;DHT22;61487;56.494;21.014;2022-07-05T10:58:27;25.50;94.40
57386;DHT22;61487;56.494;21.014;2022-07-05T11:06:25;25.10;95.00
57386;DHT22;61487;56.494;21.014;2022-07-05T11:11:29;25.20;94.80
57386;DHT22;61487;56.494;21.014;2022-07-05T11:13:57;25.10;94.40
57386;DHT22;61487;56.494;21.014;2022-07-05T11:16:32;25.30;95.00
57386;DHT22;61487;56.494;21.014;2022-07-05T11:19:07;25.30;94.40
57386;DHT22;61487;56.494;21.014;2022-07-05T11:21:39;25.70;95.20
57386;DHT22;61487;56.494;21.014;2022-07-05T11:26:48;25.20;95.30
57386;DHT22;61487;56.494;21.014;2022-07-05T11:29:53;25.40;96.10
57386;DHT22;61487;56.494;21.014;2022-07-05T11:34:54;25.90;94.90
57386;DHT22;61487;56.494;21.014;2022-07-05T11:37:26;25.90;94.70
57386;DHT22;61487;56.494;21.014;2022-07-05T11:42:49;26.20;94.50
57386;DHT22;61487;56.494;21.014;2022-07-05T11:45:17;26.20;95.10
57386;DHT22;61487;56.494;21.014;2022-07-05T11:47:44;26.00;94.60
57386;DHT22;61487;56.494;21.014;2022-07-05T11:50:12;26.20;94.80
57386;DHT22;61487;56.494;21.014;2022-07-05T11:52:40;26.30;94.20
57386;DHT22;61487;56.494;21.014;2022-07-05T11:55:08;25.40;94.90
57386;DHT22;61487;56.494;21.014;2022-07-05T11:57:37;25.70;95.40
57386;DHT22;61487;56.494;21.014;2022-07-05T12:00:05;25.60;95.60
57386;DHT22;61487;56.494;21.014;2022-07-05T12:02:32;25.30;94.20
57386;DHT22;61487;56.494;21.014;2022-07-05T12:05:10;26.00;94.80
57386;DHT22;61487;56.494;21.014;2022-07-05T12:07:38;25.40;94.90
57386;DHT22;61487;56.494;21.014;2022-07-05T12:10:07;25.30;95.70
57386;DHT22;61487;56.494;21.014;2022-07-05T12:13:13;25.80;95.60
57386;DHT22;61487;56.494;21.014;2022-07-05T12:15:40;26.50;94.00
57386;DHT22;61487;56.494;21.014;2022-07-05T12:18:08;26.90;94.20
57386;DHT22;61487;56.494;21.014;2022-07-05T12:20:36;26.40;93.70
57386;DHT22;61487;56.494;21.014;2022-07-05T12:23:05;26.20;94.60
57386;DHT22;61487;56.494;21.014;2022-07-05T12:25:33;26.20;94.00
57386;DHT22;61487;56.494;21.014;2022-07-05T12:28:03;26.30;94.50
57386;DHT22;61487;56.494;21.014;2022-07-05T12:30:34;26.40;94.10
57386;DHT22;61487;56.494;21.014;2022-07-05T12:33:08;26.10;94.50
57386;DHT22;61487;56.494;21.014;2022-07-05T12:35:44;25.50;95.90
57386;DHT22;61487;56.494;21.014;2022-07-05T12:40:47;23.60;97.20
57386;DHT22;61487;56.494;21.014;2022-07-05T12:43:16;23.40;98.10
57386;DHT22;61487;56.494;21.014;2022-07-05T12:46:00;23.10;99.20
57386;DHT22;61487;56.494;21.014;2022-07-05T12:48:38;22.60;99.90
57386;DHT22;61487;56.494;21.014;2022-07-05T12:51:08;22.40;99.90
57386;DHT22;61487;56.494;21.014;2022-07-05T12:53:47;22.30;99.90
57386;DHT22;61487;56.494;21.014;2022-07-05T12:56:34;21.80;99.90
57386;DHT22;61487;56.494;21.014;2022-07-05T12:59:50;21.70;99.90
57386;DHT22;61487;56.494;21.014;2022-07-05T13:02:45;21.50;99.90
57386;DHT22;61487;56.494;21.014;2022-07-05T13:05:21;21.40;99.90
57386;DHT22;61487;56.494;21.014;2022-07-05T13:07:50;21.30;99.90
57386;DHT22;61487;56.494;21.014;2022-07-05T13:10:26;21.70;99.90
57386;DHT22;61487;56.494;21.014;2022-07-05T13:13:06;21.90;99.90
57386;DHT22;61487;56.494;21.014;2022-07-05T13:15:33;21.80;99.90
57386;DHT22;61487;56.494;21.014;2022-07-05T13:18:04;21.70;99.90
57386;DHT22;61487;56.494;21.014;2022-07-05T13:20:31;21.60;99.90
57386;DHT22;61487;56.494;21.014;2022-07-05T13:22:58;21.40;99.90
57386;DHT22;61487;56.494;21.014;2022-07-05T13:25:25;21.30;99.90
57386;DHT22;61487;56.494;21.014;2022-07-05T13:27:52;21.10;99.90
57386;DHT22;61487;56.494;21.014;2022-07-05T13:30:20;21.10;99.90
57386;DHT22;61487;56.494;21.014;2022-07-05T13:32:47;21.30;99.90
57386;DHT22;61487;56.494;21.014;2022-07-05T13:35:14;21.90;99.90
57386;DHT22;61487;56.494;21.014;2022-07-05T13:37:41;22.50;99.90
57386;DHT22;61487;56.494;21.014;2022-07-05T13:40:09;22.90;99.90
57386;DHT22;61487;56.494;21.014;2022-07-05T13:42:37;23.20;99.90
57386;DHT22;61487;56.494;21.014;2022-07-05T13:45:04;23.70;98.30
57386;DHT22;61487;56.494;21.014;2022-07-05T13:47:32;23.80;96.60
57386;DHT22;61487;56.494;21.014;2022-07-05T13:50:06;24.10;96.10
57386;DHT22;61487;56.494;21.014;2022-07-05T13:52:54;24.30;97.20
57386;DHT22;61487;56.494;21.014;2022-07-05T13:55:22;24.50;97.70
57386;DHT22;61487;56.494;21.014;2022-07-05T13:57:49;25.10;97.40
57386;DHT22;61487;56.494;21.014;2022-07-05T14:00:17;25.60;96.30
57386;DHT22;61487;56.494;21.014;2022-07-05T14:02:44;25.30;94.90
57386;DHT22;61487;56.494;21.014;2022-07-05T14:05:12;25.60;95.00
57386;DHT22;61487;56.494;21.014;2022-07-05T14:07:39;26.20;94.10
57386;DHT22;61487;56.494;21.014;2022-07-05T14:10:07;25.30;94.90
57386;DHT22;61487;56.494;21.014;2022-07-05T14:12:35;25.20;95.30
57386;DHT22;61487;56.494;21.014;2022-07-05T14:15:02;25.20;95.20
57386;DHT22;61487;56.494;21.014;2022-07-05T14:17:29;26.10;94.80
57386;DHT22;61487;56.494;21.014;2022-07-05T14:19:56;26.70;94.80
57386;DHT22;61487;56.494;21.014;2022-07-05T14:22:23;26.90;94.60
57386;DHT22;61487;56.494;21.014;2022-07-05T14:24:50;26.80;93.50
57386;DHT22;61487;56.494;21.014;2022-07-05T14:27:18;26.90;93.30
57386;DHT22;61487;56.494;21.014;2022-07-05T14:29:53;26.80;92.70
57386;DHT22;61487;56.494;21.014;2022-07-05T14:32:20;26.10;93.90
57386;DHT22;61487;56.494;21.014;2022-07-05T14:34:47;26.50;94.30
57386;DHT22;61487;56.494;21.014;2022-07-05T14:37:14;26.00;93.60
57386;DHT22;61487;56.494;21.014;2022-07-05T14:39:42;26.00;94.00
57386;DHT22;61487;56.494;21.014;2022-07-05T14:42:09;25.50;95.40
57386;DHT22;61487;56.494;21.014;2022-07-05T14:44:36;25.50;95.60
57386;DHT22;61487;56.494;21.014;2022-07-05T14:47:04;25.40;94.80
57386;DHT22;61487;56.494;21.014;2022-07-05T14:49:31;25.30;95.20
57386;DHT22;61487;56.494;21.014;2022-07-05T14:51:58;25.20;96.30
57386;DHT22;61487;56.494;21.014;2022-07-05T14:54:25;25.00;96.20
57386;DHT22;61487;56.494;21.014;2022-07-05T14:56:52;24.60;95.70
57386;DHT22;61487;56.494;21.014;2022-07-05T14:59:25;24.00;96.30
57386;DHT22;61487;56.494;21.014;2022-07-05T15:01:52;24.00;96.70
57386;DHT22;61487;56.494;21.014;2022-07-05T15:04:20;24.20;96.10
57386;DHT22;61487;56.494;21.014;2022-07-05T15:06:47;23.30;97.00
57386;DHT22;61487;56.494;21.014;2022-07-05T15:09:14;23.70;97.80
57386;DHT22;61487;56.494;21.014;2022-07-05T15:11:41;24.20;97.80
57386;DHT22;61487;56.494;21.014;2022-07-05T15:14:09;24.70;96.20
57386;DHT22;61487;56.494;21.014;2022-07-05T15:16:36;24.10;96.80
57386;DHT22;61487;56.494;21.014;2022-07-05T15:19:04;24.10;97.40
57386;DHT22;61487;56.494;21.014;2022-07-05T15:21:31;23.90;96.80
57386;DHT22;61487;56.494;21.014;2022-07-05T15:23:58;23.80;97.40
57386;DHT22;61487;56.494;21.014;2022-07-05T15:26:43;23.60;96.60
57386;DHT22;61487;56.494;21.014;2022-07-05T15:29:10;24.10;97.00
57386;DHT22;61487;56.494;21.014;2022-07-05T15:31:37;24.20;96.50
57386;DHT22;61487;56.494;21.014;2022-07-05T15:34:05;24.40;95.40
57386;DHT22;61487;56.494;21.014;2022-07-05T15:36:33;24.40;95.50
57386;DHT22;61487;56.494;21.014;2022-07-05T15:39:04;24.30;96.20
57386;DHT22;61487;56.494;21.014;2022-07-05T15:41:33;24.30;96.00
57386;DHT22;61487;56.494;21.014;2022-07-05T15:44:00;24.20;94.80
57386;DHT22;61487;56.494;21.014;2022-07-05T15:46:28;24.10;95.30
57386;DHT22;61487;56.494;21.014;2022-07-05T15:49:14;23.80;95.70
57386;DHT22;61487;56.494;21.014;2022-07-05T15:51:42;23.90;96.50
57386;DHT22;61487;56.494;21.014;2022-07-05T15:54:09;24.30;95.90
57386;DHT22;61487;56.494;21.014;2022-07-05T15:56:37;24.30;96.20
57386;DHT22;61487;56.494;21.014;2022-07-05T15:59:04;24.00;96.00